createdAt,value
2023-01-09T00:01:12.749Z,99172.41
2023-01-09T00:03:40.502Z,99169.81
2023-01-09T00:06:08.481Z,99169.81
2023-01-09T00:08:36.005Z,99164.56
2023-01-09T00:11:05.405Z,99156.66
2023-01-09T00:13:32.961Z,99161.91
2023-01-09T00:16:00.624Z,99151.41
2023-01-09T00:18:28.194Z,99155.78
2023-01-09T00:20:55.701Z,99140.91
2023-01-09T00:23:23.234Z,99137.41
2023-01-09T00:25:50.727Z,99140.03
2023-01-09T00:28:19.562Z,99127.78
2023-01-09T00:30:56.113Z,99125.16
2023-01-09T00:33:26.633Z,99126.03
2023-01-09T00:35:54.143Z,99113.78
2023-01-09T00:38:21.861Z,99100.63
2023-01-09T00:40:49.587Z,99105.03
2023-01-09T00:43:20.125Z,99108.53
2023-01-09T00:45:47.736Z,99111.16
2023-01-09T00:48:24.850Z,99111.16
2023-01-09T00:50:52.903Z,99121.66
2023-01-09T00:53:23.293Z,99118.13
2023-01-09T00:55:51.289Z,99105.00
2023-01-09T00:58:20.767Z,99108.53
2023-01-09T01:00:48.330Z,99103.25
2023-01-09T01:03:16.077Z,99096.28
2023-01-09T01:06:01.281Z,99090.13
2023-01-09T01:08:28.909Z,99074.38
2023-01-09T01:10:56.423Z,99087.50
2023-01-09T01:13:25.257Z,99069.97
2023-01-09T01:15:52.929Z,99071.72
2023-01-09T01:18:20.487Z,99064.72
2023-01-09T01:20:47.982Z,99069.97
2023-01-09T01:23:15.555Z,99052.47
2023-01-09T01:25:43.675Z,99062.97
2023-01-09T01:28:11.361Z,99062.09
2023-01-09T01:30:41.567Z,99064.72
2023-01-09T01:33:10.433Z,99062.97
2023-01-09T01:35:38.825Z,99062.09
2023-01-09T01:38:06.757Z,99060.34
2023-01-09T01:40:34.509Z,99064.72
2023-01-09T01:43:02.081Z,99063.84
2023-01-09T01:45:33.075Z,99062.09
2023-01-09T01:48:06.829Z,99061.22
2023-01-09T01:50:38.680Z,99063.81
2023-01-09T01:53:13.115Z,99066.44
2023-01-09T01:55:44.437Z,99067.31
2023-01-09T01:58:15.968Z,99057.69
2023-01-09T02:00:45.614Z,99059.44
2023-01-09T02:03:18.701Z,99053.31
2023-01-09T02:05:46.589Z,99054.19
2023-01-09T02:08:14.433Z,99055.94
2023-01-09T02:10:42.382Z,99055.03
2023-01-09T02:13:11.095Z,99047.16
2023-01-09T02:15:56.063Z,99045.38
2023-01-09T02:18:52.231Z,99042.75
2023-01-09T02:21:29.631Z,99038.34
2023-01-09T02:24:10.752Z,99043.63
2023-01-09T02:27:16.870Z,99034.88
2023-01-09T02:30:26.570Z,99036.59
2023-01-09T02:33:09.925Z,99034.88
2023-01-09T02:35:50.927Z,99032.22
2023-01-09T02:38:25.048Z,99022.59
2023-01-09T02:41:01.258Z,99018.19
2023-01-09T02:43:28.949Z,99011.22
2023-01-09T02:45:57.881Z,99011.22
2023-01-09T02:48:25.450Z,98998.94
2023-01-09T02:51:02.256Z,99005.94
2023-01-09T02:53:49.812Z,98994.53
2023-01-09T02:56:29.693Z,98992.81
2023-01-09T02:59:14.991Z,98977.03
2023-01-09T03:01:55.332Z,98975.28
2023-01-09T03:04:31.554Z,98967.38
2023-01-09T03:07:05.278Z,98972.63
2023-01-09T03:09:37.236Z,98963.84
2023-01-09T03:12:12.657Z,98959.50
2023-01-09T03:14:45.235Z,98953.34
2023-01-09T03:17:18.349Z,98942.81
2023-01-09T03:19:47.589Z,98952.47
2023-01-09T03:22:15.110Z,98959.50
2023-01-09T03:24:42.594Z,98977.88
2023-01-09T03:27:10.251Z,98959.50
2023-01-09T03:29:37.798Z,98965.63
2023-01-09T03:32:05.673Z,98963.84
2023-01-09T03:34:34.506Z,98969.09
2023-01-09T03:37:02.017Z,98966.47
2023-01-09T03:39:29.727Z,98965.59
2023-01-09T03:41:57.217Z,98964.75
2023-01-09T03:44:24.960Z,98966.47
2023-01-09T03:46:52.490Z,98970.84
2023-01-09T03:49:20.241Z,98969.94
2023-01-09T03:51:49.069Z,98960.28
2023-01-09T03:54:16.629Z,98961.19
2023-01-09T03:56:44.185Z,98955.91
2023-01-09T03:59:11.685Z,98956.78
2023-01-09T04:01:39.482Z,98969.00
2023-01-09T04:04:07.130Z,98966.38
2023-01-09T04:06:34.715Z,98968.13
2023-01-09T04:09:03.880Z,98970.75
2023-01-09T04:11:31.374Z,98969.00
2023-01-09T04:13:58.887Z,98976.88
2023-01-09T04:16:26.437Z,98979.50
2023-01-09T04:18:53.959Z,98968.06
2023-01-09T04:21:21.542Z,98977.72
2023-01-09T04:23:49.057Z,98980.34
2023-01-09T04:26:17.898Z,98971.53
2023-01-09T04:28:45.444Z,98969.78
2023-01-09T04:31:13.050Z,98962.78
2023-01-09T04:33:40.659Z,98961.03
2023-01-09T04:36:08.957Z,98959.25
2023-01-09T04:38:36.482Z,98961.03
2023-01-09T04:41:03.992Z,98953.13
2023-01-09T04:43:32.807Z,98957.53
2023-01-09T04:46:00.380Z,98948.78
2023-01-09T04:48:27.883Z,98943.53
2023-01-09T04:50:55.401Z,98936.50
2023-01-09T04:53:22.886Z,98934.72
2023-01-09T04:55:50.436Z,98933.00
2023-01-09T04:58:18.037Z,98928.59
2023-01-09T05:00:46.971Z,98916.31
2023-01-09T05:03:14.476Z,98907.56
2023-01-09T05:05:41.979Z,98904.06
2023-01-09T05:08:09.519Z,98903.16
2023-01-09T05:10:37.041Z,98900.53
2023-01-09T05:13:04.595Z,98898.78
2023-01-09T05:15:32.177Z,98907.56
2023-01-09T05:18:01.002Z,98908.44
2023-01-09T05:20:28.600Z,98901.41
2023-01-09T05:22:56.121Z,98898.75
2023-01-09T05:25:23.668Z,98897.91
2023-01-09T05:27:51.198Z,98895.25
2023-01-09T05:30:19.360Z,98890.00
2023-01-09T05:32:47.047Z,98887.38
2023-01-09T05:35:15.967Z,98885.59
2023-01-09T05:37:44.026Z,98882.09
2023-01-09T05:40:12.783Z,98893.50
2023-01-09T05:42:40.713Z,98890.00
2023-01-09T05:45:09.528Z,98888.22
2023-01-09T05:47:37.453Z,98890.84
2023-01-09T05:50:05.737Z,98885.56
2023-01-09T05:52:34.585Z,98889.97
2023-01-09T05:55:02.110Z,98889.97
2023-01-09T05:57:29.729Z,98893.47
2023-01-09T05:59:57.256Z,98895.16
2023-01-09T06:02:24.974Z,98897.78
2023-01-09T06:04:52.587Z,98906.56
2023-01-09T06:07:23.274Z,98905.66
2023-01-09T06:09:52.368Z,98899.53
2023-01-09T06:12:19.930Z,98906.50
2023-01-09T06:14:47.460Z,98899.47
2023-01-09T06:17:14.957Z,98916.16
2023-01-09T06:19:42.484Z,98914.38
2023-01-09T06:22:09.971Z,98918.78
2023-01-09T06:24:37.478Z,98917.88
2023-01-09T06:27:06.641Z,98907.34
2023-01-09T06:29:34.203Z,98912.59
2023-01-09T06:32:01.740Z,98916.06
2023-01-09T06:34:29.315Z,98925.75
2023-01-09T06:36:56.840Z,98929.22
2023-01-09T06:39:24.409Z,98924.81
2023-01-09T06:41:51.925Z,98923.09
2023-01-09T06:44:20.834Z,98917.81
2023-01-09T06:46:48.399Z,98928.34
2023-01-09T06:49:17.938Z,98930.97
2023-01-09T06:51:45.435Z,98930.06
2023-01-09T06:54:12.982Z,98933.59
2023-01-09T06:56:40.495Z,98935.31
2023-01-09T06:59:08.010Z,98933.56
2023-01-09T07:01:36.981Z,98939.72
2023-01-09T07:04:06.170Z,98933.56
2023-01-09T07:06:33.828Z,98940.56
2023-01-09T07:09:01.452Z,98932.69
2023-01-09T07:11:28.965Z,98930.91
2023-01-09T07:13:56.528Z,98931.81
2023-01-09T07:16:24.223Z,98931.78
2023-01-09T07:18:54.737Z,98938.81
2023-01-09T07:21:22.348Z,98942.31
2023-01-09T07:23:49.951Z,98949.31
2023-01-09T07:26:17.542Z,98964.22
2023-01-09T07:28:45.090Z,98963.31
2023-01-09T07:31:12.722Z,98973.81
2023-01-09T07:33:40.392Z,98975.53
2023-01-09T07:36:09.738Z,98981.69
2023-01-09T07:38:38.489Z,98990.44
2023-01-09T07:41:06.416Z,98998.31
2023-01-09T07:43:34.041Z,99000.03
2023-01-09T07:46:01.604Z,98999.19
2023-01-09T07:48:29.180Z,99001.81
2023-01-09T07:50:56.710Z,98995.69
2023-01-09T07:53:25.611Z,99019.38
2023-01-09T07:55:53.172Z,99013.25
2023-01-09T07:58:20.754Z,99014.09
2023-01-09T08:00:48.339Z,99016.75
2023-01-09T08:03:15.865Z,99018.47
2023-01-09T08:05:43.392Z,99019.34
2023-01-09T08:08:10.971Z,99022.84
2023-01-09T08:10:39.794Z,99024.63
2023-01-09T08:13:07.271Z,99032.47
2023-01-09T08:15:35.518Z,99024.56
2023-01-09T08:18:03.110Z,99024.53
2023-01-09T08:20:31.012Z,99028.03
2023-01-09T08:22:58.539Z,99028.00
2023-01-09T08:25:26.232Z,99020.94
2023-01-09T08:27:55.121Z,99026.19
2023-01-09T08:30:22.888Z,99028.78
2023-01-09T08:32:51.651Z,99035.75
2023-01-09T08:35:19.325Z,99031.34
2023-01-09T08:37:47.468Z,99039.19
2023-01-09T08:40:16.892Z,99041.81
2023-01-09T08:43:02.562Z,99040.88
2023-01-09T08:45:49.360Z,99064.53
2023-01-09T08:48:17.137Z,99065.38
2023-01-09T08:50:45.222Z,99075.84
2023-01-09T08:53:13.203Z,99082.88
2023-01-09T08:55:40.702Z,99094.25
2023-01-09T08:58:08.292Z,99092.47
2023-01-09T09:00:37.199Z,99100.38
2023-01-09T09:03:05.117Z,99103.88
2023-01-09T09:05:33.620Z,99110.00
2023-01-09T09:08:02.614Z,99124.09
2023-01-09T09:10:30.852Z,99131.13
2023-01-09T09:13:00.144Z,99127.63
2023-01-09T09:15:29.050Z,99131.16
2023-01-09T09:18:00.553Z,99130.31
2023-01-09T09:20:30.563Z,99146.13
2023-01-09T09:22:58.419Z,99148.75
2023-01-09T09:25:26.187Z,99154.03
2023-01-09T09:27:55.850Z,99147.00
2023-01-09T09:30:24.261Z,99147.00
2023-01-09T09:32:52.008Z,99148.75
2023-01-09T09:35:22.472Z,99154.03
2023-01-09T09:37:57.837Z,99159.28
2023-01-09T09:40:39.348Z,99157.53
2023-01-09T09:43:48.217Z,99163.66
2023-01-09T09:46:27.456Z,99161.94
2023-01-09T09:48:58.981Z,99166.28
2023-01-09T09:51:43.759Z,99167.16
2023-01-09T09:54:14.965Z,99180.31
2023-01-09T09:56:49.229Z,99182.06
2023-01-09T09:59:19.440Z,99185.56
2023-01-09T10:01:53.777Z,99182.94
2023-01-09T10:04:24.322Z,99186.47
2023-01-09T10:06:58.569Z,99189.13
2023-01-09T10:09:37.140Z,99187.34
2023-01-09T10:12:14.781Z,99188.22
2023-01-09T10:14:42.533Z,99192.63
2023-01-09T10:17:26.423Z,99182.09
2023-01-09T10:20:32.951Z,99182.09
2023-01-09T10:23:12.641Z,99190.88
2023-01-09T10:25:46.466Z,99185.59
2023-01-09T10:28:30.238Z,99192.63
2023-01-09T10:31:01.887Z,99185.59
2023-01-09T10:33:45.028Z,99196.13
2023-01-09T10:36:32.630Z,99187.34
2023-01-09T10:39:08.005Z,99196.97
2023-01-09T10:41:42.152Z,99211.94
2023-01-09T10:44:29.259Z,99220.69
2023-01-09T10:46:59.230Z,99214.53
2023-01-09T10:49:27.727Z,99216.22
2023-01-09T10:52:05.444Z,99221.47
2023-01-09T10:54:34.325Z,99228.41
2023-01-09T10:57:13.715Z,99223.81
2023-01-09T10:59:41.702Z,99226.28
2023-01-09T11:02:26.658Z,99220.88
2023-01-09T11:04:54.199Z,99216.28
2023-01-09T11:07:24.679Z,99217.88
2023-01-09T11:10:01.686Z,99223.00
2023-01-09T11:12:31.055Z,99217.56
2023-01-09T11:15:20.468Z,99218.28
2023-01-09T11:17:48.778Z,99218.16
2023-01-09T11:20:18.246Z,99225.09
2023-01-09T11:22:48.065Z,99229.38
2023-01-09T11:25:18.660Z,99235.50
2023-01-09T11:28:05.882Z,99232.91
2023-01-09T11:30:36.176Z,99234.75
2023-01-09T11:33:15.791Z,99231.31
2023-01-09T11:35:59.985Z,99243.75
2023-01-09T11:38:28.450Z,99243.06
2023-01-09T11:40:59.689Z,99244.91
2023-01-09T11:43:34.122Z,99233.53
2023-01-09T11:46:04.817Z,99248.53
2023-01-09T11:48:35.957Z,99247.72
2023-01-09T11:51:06.736Z,99247.75
2023-01-09T11:53:49.508Z,99253.06
2023-01-09T11:56:19.125Z,99251.34
2023-01-09T11:58:46.825Z,99245.16
2023-01-09T12:01:34.842Z,99251.34
2023-01-09T12:04:19.532Z,99251.34
2023-01-09T12:06:59.001Z,99243.44
2023-01-09T12:09:35.863Z,99239.91
2023-01-09T12:12:17.598Z,99239.88
2023-01-09T12:14:58.931Z,99230.25
2023-01-09T12:17:45.404Z,99235.50
2023-01-09T12:20:32.551Z,99223.16
2023-01-09T12:23:15.147Z,99222.16
2023-01-09T12:25:52.938Z,99224.53
2023-01-09T12:28:54.516Z,99225.94
2023-01-09T12:31:40.789Z,99233.69
2023-01-09T12:34:28.358Z,99232.56
2023-01-09T12:37:11.696Z,99226.97
2023-01-09T12:39:48.679Z,99234.63
2023-01-09T12:42:43.208Z,99218.53
2023-01-09T12:45:29.630Z,99220.06
2023-01-09T12:48:08.998Z,99223.47
2023-01-09T12:50:56.025Z,99212.59
2023-01-09T12:53:26.856Z,99223.06
2023-01-09T12:56:01.707Z,99221.13
2023-01-09T12:58:35.700Z,99220.16
2023-01-09T13:01:09.869Z,99215.56
2023-01-09T13:03:42.728Z,99217.28
2023-01-09T13:06:16.700Z,99223.41
2023-01-09T13:08:51.558Z,99214.63
2023-01-09T13:11:25.298Z,99226.31
2023-01-09T13:13:59.248Z,99229.22
2023-01-09T13:16:32.036Z,99231.28
2023-01-09T13:19:06.760Z,99232.41
2023-01-09T13:21:34.951Z,99228.22
2023-01-09T13:24:11.754Z,99230.13
2023-01-09T13:26:43.879Z,99232.94
2023-01-09T13:29:18.566Z,99238.31
2023-01-09T13:32:36.147Z,99247.25
2023-01-09T13:35:04.835Z,99246.53
2023-01-09T13:37:35.257Z,99251.94
2023-01-09T13:40:04.929Z,99248.50
2023-01-09T13:42:44.173Z,99249.47
2023-01-09T13:45:21.280Z,99245.09
2023-01-09T13:48:34.191Z,99249.56
2023-01-09T13:51:39.459Z,99250.44
2023-01-09T13:54:10.367Z,99254.91
2023-01-09T13:57:11.386Z,99259.38
2023-01-09T13:59:39.011Z,99262.09
2023-01-09T14:02:47.014Z,99267.44
2023-01-09T14:05:17.832Z,99268.34
2023-01-09T14:07:49.302Z,99278.09
2023-01-09T14:10:24.032Z,99279.91
2023-01-09T14:12:55.038Z,99279.97
2023-01-09T14:15:27.683Z,99282.66
2023-01-09T14:18:00.445Z,99297.66
2023-01-09T14:20:39.692Z,99294.16
2023-01-09T14:23:42.264Z,99289.78
2023-01-09T14:25:56.907Z,99293.34
2023-01-09T14:28:25.944Z,99284.56
2023-01-09T14:31:06.333Z,99289.00
2023-01-09T14:33:33.939Z,99290.78
2023-01-09T14:36:12.627Z,99294.31
2023-01-09T14:38:45.117Z,99304.91
2023-01-09T14:41:21.685Z,99316.41
2023-01-09T14:43:57.971Z,99318.19
2023-01-09T14:46:26.440Z,99323.47
2023-01-09T14:49:04.477Z,99326.13
2023-01-09T14:51:39.035Z,99324.34
2023-01-09T14:54:20.297Z,99332.31
2023-01-09T14:56:48.126Z,99338.50
2023-01-09T14:59:17.385Z,99339.38
2023-01-09T15:01:49.218Z,99349.06
2023-01-09T15:04:28.366Z,99350.84
2023-01-09T15:06:57.254Z,99348.22
2023-01-09T15:09:27.977Z,99342.03
2023-01-09T15:12:01.738Z,99347.31
2023-01-09T15:14:35.814Z,99349.09
2023-01-09T15:17:04.943Z,99357.94
2023-01-09T15:19:32.932Z,99363.25
2023-01-09T15:22:04.918Z,99356.22
2023-01-09T15:24:34.391Z,99364.19
2023-01-09T15:27:04.518Z,99369.47
2023-01-09T15:29:32.268Z,99366.84
2023-01-09T15:32:05.923Z,99372.13
2023-01-09T15:34:34.501Z,99378.31
2023-01-09T15:37:03.795Z,99385.38
2023-01-09T15:39:36.497Z,99381.88
2023-01-09T15:42:36.949Z,99397.75
2023-01-09T15:45:05.373Z,99388.09
2023-01-09T15:47:33.543Z,99393.38
2023-01-09T15:50:03.905Z,99396.03
2023-01-09T15:52:32.866Z,99397.81
2023-01-09T15:55:00.386Z,99397.84
2023-01-09T15:57:35.403Z,99403.13
2023-01-09T16:00:35.087Z,99408.41
2023-01-09T16:03:11.795Z,99413.75
2023-01-09T16:05:44.459Z,99418.13
2023-01-09T16:08:21.871Z,99410.25
2023-01-09T16:10:52.886Z,99415.53
2023-01-09T16:13:23.386Z,99419.91
2023-01-09T16:15:52.203Z,99423.47
2023-01-09T16:18:29.253Z,99413.81
2023-01-09T16:21:06.637Z,99419.13
2023-01-09T16:23:37.277Z,99427.03
2023-01-09T16:26:07.386Z,99425.28
2023-01-09T16:28:34.984Z,99419.13
2023-01-09T16:31:08.093Z,99426.19
2023-01-09T16:33:36.088Z,99425.34
2023-01-09T16:36:05.283Z,99430.63
2023-01-09T16:38:32.769Z,99435.91
2023-01-09T16:41:20.946Z,99433.25
2023-01-09T16:43:48.464Z,99435.91
2023-01-09T16:46:17.512Z,99439.41
2023-01-09T16:48:45.174Z,99440.31
2023-01-09T16:51:16.817Z,99445.59
2023-01-09T16:53:44.961Z,99450.00
2023-01-09T16:56:21.996Z,99451.72
2023-01-09T16:58:50.324Z,99442.97
2023-01-09T17:01:18.159Z,99447.38
2023-01-09T17:03:47.682Z,99457.91
2023-01-09T17:06:19.168Z,99456.16
2023-01-09T17:08:46.951Z,99459.69
2023-01-09T17:11:21.591Z,99458.84
2023-01-09T17:13:49.180Z,99462.34
2023-01-09T17:16:18.339Z,99457.94
2023-01-09T17:18:46.345Z,99473.78
2023-01-09T17:21:18.333Z,99471.16
2023-01-09T17:23:46.461Z,99480.84
2023-01-09T17:26:39.082Z,99483.44
2023-01-09T17:29:07.348Z,99488.72
2023-01-09T17:31:36.869Z,99480.81
2023-01-09T17:34:05.430Z,99480.81
2023-01-09T17:36:34.984Z,99480.81
2023-01-09T17:39:03.031Z,99476.44
2023-01-09T17:41:33.519Z,99479.97
2023-01-09T17:44:01.126Z,99488.75
2023-01-09T17:46:32.356Z,99484.34
2023-01-09T17:49:01.035Z,99494.00
2023-01-09T17:51:29.283Z,99496.63
2023-01-09T17:53:57.587Z,99495.75
2023-01-09T17:56:27.015Z,99501.03
2023-01-09T17:58:55.921Z,99501.91
2023-01-09T18:01:23.773Z,99504.53
2023-01-09T18:03:51.532Z,99506.31
2023-01-09T18:06:22.102Z,99511.56
2023-01-09T18:08:50.421Z,99522.13
2023-01-09T18:11:19.849Z,99520.38
2023-01-09T18:13:48.398Z,99515.97
2023-01-09T18:16:19.248Z,99521.25
2023-01-09T18:18:47.365Z,99515.97
2023-01-09T18:21:17.905Z,99520.38
2023-01-09T18:23:47.557Z,99519.50
2023-01-09T18:26:20.776Z,99535.31
2023-01-09T18:28:49.959Z,99534.44
2023-01-09T18:31:22.726Z,99531.81
2023-01-09T18:33:52.385Z,99544.09
2023-01-09T18:36:21.905Z,99545.88
2023-01-09T18:38:53.318Z,99566.06
2023-01-09T18:41:21.658Z,99577.47
2023-01-09T18:43:50.286Z,99569.59
2023-01-09T18:46:23.889Z,99584.50
2023-01-09T18:48:52.766Z,99582.72
2023-01-09T18:51:20.915Z,99581.84
2023-01-09T18:53:48.492Z,99589.75
2023-01-09T18:56:16.339Z,99591.47
2023-01-09T18:58:43.844Z,99589.69
2023-01-09T19:01:12.024Z,99593.22
2023-01-09T19:03:41.114Z,99600.22
2023-01-09T19:06:09.251Z,99607.22
2023-01-09T19:08:37.320Z,99594.03
2023-01-09T19:11:05.735Z,99602.81
2023-01-09T19:13:34.835Z,99607.19
2023-01-09T19:16:03.523Z,99621.16
2023-01-09T19:18:34.580Z,99626.44
2023-01-09T19:21:10.664Z,99621.19
2023-01-09T19:23:38.125Z,99625.53
2023-01-09T19:26:08.805Z,99627.28
2023-01-09T19:28:38.202Z,99636.91
2023-01-09T19:31:06.051Z,99643.03
2023-01-09T19:33:33.539Z,99631.63
2023-01-09T19:36:01.163Z,99632.53
2023-01-09T19:38:30.042Z,99641.28
2023-01-09T19:40:57.533Z,99636.00
2023-01-09T19:43:27.649Z,99639.50
2023-01-09T19:45:56.198Z,99646.50
2023-01-09T19:48:27.007Z,99649.13
2023-01-09T19:51:01.292Z,99642.97
2023-01-09T19:53:31.128Z,99642.97
2023-01-09T19:56:10.089Z,99644.69
2023-01-09T19:58:37.915Z,99654.31
2023-01-09T20:01:10.708Z,99670.97
2023-01-09T20:03:38.740Z,99667.41
2023-01-09T20:06:08.121Z,99671.81
2023-01-09T20:08:36.935Z,99685.84
2023-01-09T20:11:06.578Z,99687.56
2023-01-09T20:13:34.257Z,99689.28
2023-01-09T20:16:03.637Z,99705.06
2023-01-09T20:18:32.771Z,99705.94
2023-01-09T20:21:00.653Z,99709.41
2023-01-09T20:23:32.282Z,99710.28
2023-01-09T20:26:01.492Z,99715.56
2023-01-09T20:28:29.444Z,99712.03
2023-01-09T20:30:57.040Z,99717.28
2023-01-09T20:33:24.681Z,99718.16
2023-01-09T20:35:52.235Z,99725.13
2023-01-09T20:38:19.728Z,99726.88
2023-01-09T20:40:47.441Z,99731.25
2023-01-09T20:43:16.482Z,99733.84
2023-01-09T20:45:44.092Z,99740.00
2023-01-09T20:48:11.968Z,99738.25
2023-01-09T20:50:39.543Z,99745.25
2023-01-09T20:53:07.950Z,99753.16
2023-01-09T20:55:36.442Z,99756.63
2023-01-09T20:58:03.961Z,99761.84
2023-01-09T21:00:32.837Z,99769.69
2023-01-09T21:03:00.389Z,99769.69
2023-01-09T21:05:27.884Z,99780.13
2023-01-09T21:07:55.406Z,99784.47
2023-01-09T21:10:22.994Z,99794.09
2023-01-09T21:12:50.636Z,99799.31
2023-01-09T21:15:19.743Z,99808.06
2023-01-09T21:17:48.685Z,99819.44
2023-01-09T21:20:16.375Z,99822.97
2023-01-09T21:22:44.017Z,99829.13
2023-01-09T21:25:11.780Z,99830.06
2023-01-09T21:27:40.977Z,99837.97
2023-01-09T21:30:09.947Z,99842.38
2023-01-09T21:32:37.561Z,99838.06
2023-01-09T21:35:07.368Z,99834.59
2023-01-09T21:37:37.156Z,99832.06
2023-01-09T21:40:08.544Z,99837.38
2023-01-09T21:42:53.780Z,99844.44
2023-01-09T21:45:38.930Z,99851.50
2023-01-09T21:48:07.422Z,99855.03
2023-01-09T21:50:36.403Z,99860.34
2023-01-09T21:53:04.655Z,99869.13
2023-01-09T21:55:32.605Z,99873.53
2023-01-09T21:58:01.106Z,99876.22
2023-01-09T22:00:29.606Z,99887.63
2023-01-09T22:02:57.739Z,99884.97
2023-01-09T22:05:27.246Z,99892.88
2023-01-09T22:07:57.175Z,99892.00
2023-01-09T22:10:24.690Z,99901.66
2023-01-09T22:13:10.385Z,99901.66
2023-01-09T22:15:37.888Z,99907.75
2023-01-09T22:18:05.555Z,99918.31
2023-01-09T22:20:33.107Z,99921.81
2023-01-09T22:23:01.987Z,99934.97
2023-01-09T22:25:29.486Z,99943.75
2023-01-09T22:27:57.042Z,99940.28
2023-01-09T22:30:24.526Z,99939.44
2023-01-09T22:32:52.072Z,99943.84
2023-01-09T22:35:19.588Z,99943.88
2023-01-09T22:37:47.135Z,99950.03
2023-01-09T22:40:16.377Z,99948.25
2023-01-09T22:42:43.970Z,99960.59
2023-01-09T22:45:12.234Z,99953.56
2023-01-09T22:47:39.717Z,99968.50
2023-01-09T22:50:08.633Z,99975.53
2023-01-09T22:52:36.149Z,99975.56
2023-01-09T22:55:03.844Z,99974.69
2023-01-09T22:57:32.811Z,99981.69
2023-01-09T23:00:00.300Z,99987.84
2023-01-09T23:02:27.951Z,99987.88
2023-01-09T23:04:58.245Z,100004.53
2023-01-09T23:07:26.380Z,100011.53
2023-01-09T23:09:56.215Z,100026.47
2023-01-09T23:12:23.755Z,100015.94
2023-01-09T23:14:52.556Z,100022.06
2023-01-09T23:17:20.061Z,100027.31
2023-01-09T23:19:47.565Z,100028.16
2023-01-09T23:22:15.135Z,100023.78
2023-01-09T23:24:42.626Z,100040.41
2023-01-09T23:27:10.177Z,100041.28
2023-01-09T23:29:39.781Z,100046.50
2023-01-09T23:32:08.746Z,100044.78
2023-01-09T23:34:36.291Z,100052.69
2023-01-09T23:37:08.854Z,100054.41
2023-01-09T23:39:36.543Z,100059.66
2023-01-09T23:42:21.976Z,100058.75
2023-01-09T23:44:49.521Z,100073.66
2023-01-09T23:47:18.359Z,100078.03
2023-01-09T23:49:45.831Z,100078.03
2023-01-09T23:52:13.359Z,100093.81
2023-01-09T23:54:40.898Z,100083.31
2023-01-09T23:57:08.414Z,100100.84
2023-01-09T23:59:35.888Z,100095.59
